Juniata, Nebraska
Current Conditions -  °F | °C
As of 4:53 AM on Tuesday 21 Oct 2014 (Local Time) from KHSI Reporting Station
Clear Clear  
Wind Chill: 50°   Ceiling: Unl
Heat Index: 50°   Visibility: 10mi
Dew Point: 39°   Wind: 7mph
Humidity: 66%   Direction: 180°S
Pressure: 30.07"   Gusts: NA
Location:  40.59°N, 98.51°W
Report Text: KHSI 210953Z AUTO 18006KT 10SM CLR 10/04 A3007 RMK AO2 SLP175 T01000039
Loading
Personal Weather Stations






























Interactive Weather Map
Tropical Storm Tracking
New forecast layout! Learn more

10-Day Weather Forecast

Advertisements
Track Severe Weather on mobile